createdAt,value
2023-05-24T00:00:25.141Z,26.63
2023-05-24T00:01:25.185Z,26.60
2023-05-24T00:02:25.355Z,26.63
2023-05-24T00:03:25.370Z,26.62
2023-05-24T00:04:25.622Z,26.62
2023-05-24T00:05:25.327Z,26.60
2023-05-24T00:06:25.355Z,26.60
2023-05-24T00:07:25.357Z,26.60
2023-05-24T00:08:25.394Z,26.60
2023-05-24T00:09:25.399Z,26.60
2023-05-24T00:10:25.415Z,26.62
2023-05-24T00:11:25.423Z,26.59
2023-05-24T00:12:25.471Z,26.59
2023-05-24T00:13:25.475Z,26.62
2023-05-24T00:14:25.507Z,26.60
2023-05-24T00:15:25.523Z,26.60
2023-05-24T00:16:25.616Z,26.63
2023-05-24T00:17:25.586Z,26.62
2023-05-24T00:18:25.570Z,26.60
2023-05-24T00:19:25.615Z,26.59
2023-05-24T00:20:25.683Z,26.60
2023-05-24T00:21:25.648Z,26.59
2023-05-24T00:22:25.654Z,26.62
2023-05-24T00:23:25.709Z,26.60
2023-05-24T00:24:25.709Z,26.62
2023-05-24T00:25:25.724Z,26.59
2023-05-24T00:26:25.730Z,26.60
2023-05-24T00:27:25.761Z,26.59
2023-05-24T00:28:25.773Z,26.60
2023-05-24T00:29:25.809Z,26.60
2023-05-24T00:30:25.809Z,26.59
2023-05-24T00:31:25.864Z,26.60
2023-05-24T00:32:25.887Z,26.60
2023-05-24T00:33:25.898Z,26.60
2023-05-24T00:34:25.929Z,26.58
2023-05-24T00:35:25.951Z,26.59
2023-05-24T00:36:25.990Z,26.58
2023-05-24T00:37:26.003Z,26.60
2023-05-24T00:38:26.043Z,26.59
2023-05-24T00:39:26.064Z,26.59
2023-05-24T00:40:26.120Z,26.58
2023-05-24T00:41:26.108Z,26.59
2023-05-24T00:42:26.132Z,26.60
2023-05-24T00:43:26.146Z,26.60
2023-05-24T00:44:26.176Z,26.59
2023-05-24T00:45:26.206Z,26.58
2023-05-24T00:46:26.226Z,26.59
2023-05-24T00:47:26.288Z,26.56
2023-05-24T00:48:26.234Z,26.58
2023-05-24T00:49:26.255Z,26.56
2023-05-24T00:50:26.272Z,26.55
2023-05-24T00:51:26.314Z,26.56
2023-05-24T00:52:26.320Z,26.58
2023-05-24T00:53:26.341Z,26.58
2023-05-24T00:54:26.349Z,26.58
2023-05-24T00:55:26.367Z,26.58
2023-05-24T00:56:26.415Z,26.58
2023-05-24T00:57:26.418Z,26.59
2023-05-24T00:58:26.428Z,26.56
2023-05-24T00:59:26.452Z,26.56
2023-05-24T01:00:26.489Z,26.56
2023-05-24T01:01:26.689Z,26.56
2023-05-24T01:02:26.625Z,26.55
2023-05-24T01:03:26.681Z,26.56
2023-05-24T01:04:26.616Z,26.56
2023-05-24T01:05:26.618Z,26.56
2023-05-24T01:06:26.652Z,26.59
2023-05-24T01:07:26.676Z,26.56
2023-05-24T01:08:26.673Z,26.58
2023-05-24T01:09:26.699Z,26.55
2023-05-24T01:10:26.742Z,26.55
2023-05-24T01:11:26.752Z,26.56
2023-05-24T01:12:26.774Z,26.56
2023-05-24T01:13:26.800Z,26.53
2023-05-24T01:14:26.867Z,26.55
2023-05-24T01:15:26.843Z,26.56
2023-05-24T01:16:26.960Z,26.55
2023-05-24T01:17:26.967Z,26.55
2023-05-24T01:18:26.888Z,26.53
2023-05-24T01:19:26.923Z,26.55
2023-05-24T01:20:27.023Z,26.55
2023-05-24T01:21:26.975Z,26.55
2023-05-24T01:22:26.984Z,26.53
2023-05-24T01:23:27.016Z,26.53
2023-05-24T01:24:27.052Z,26.53
2023-05-24T01:25:27.052Z,26.55
2023-05-24T01:26:27.089Z,26.50
2023-05-24T01:27:27.085Z,26.56
2023-05-24T01:28:27.112Z,26.53
2023-05-24T01:29:27.137Z,26.52
2023-05-24T01:30:27.159Z,26.52
2023-05-24T01:31:27.266Z,26.52
2023-05-24T01:32:27.287Z,26.53
2023-05-24T01:33:27.282Z,26.52
2023-05-24T01:34:27.321Z,26.53
2023-05-24T01:35:27.354Z,26.52
2023-05-24T01:36:27.415Z,26.53
2023-05-24T01:37:27.444Z,26.53
2023-05-24T01:38:27.497Z,26.50
2023-05-24T01:39:27.526Z,26.52
2023-05-24T01:40:27.564Z,26.52
2023-05-24T01:41:27.637Z,26.49
2023-05-24T01:42:27.705Z,26.48
2023-05-24T01:43:27.699Z,26.52
2023-05-24T01:44:27.798Z,26.52
2023-05-24T01:45:27.812Z,26.49
2023-05-24T01:46:27.866Z,26.49
2023-05-24T01:47:27.960Z,26.49
2023-05-24T01:48:27.921Z,26.48
2023-05-24T01:49:27.958Z,26.49
2023-05-24T01:50:28.011Z,26.48
2023-05-24T01:51:28.067Z,26.49
2023-05-24T01:52:28.129Z,26.49
2023-05-24T01:53:28.138Z,26.46
2023-05-24T01:54:28.175Z,26.49
2023-05-24T01:55:28.241Z,26.46
2023-05-24T01:56:28.306Z,26.49
2023-05-24T01:57:28.401Z,26.48
2023-05-24T01:58:28.364Z,26.48
2023-05-24T01:59:28.412Z,26.48
2023-05-24T02:00:28.441Z,26.46
2023-05-24T02:01:28.559Z,26.48
2023-05-24T02:02:28.677Z,26.46
2023-05-24T02:03:28.665Z,26.46
2023-05-24T02:04:28.636Z,26.46
2023-05-24T02:05:28.694Z,26.48
2023-05-24T02:06:28.753Z,26.45
2023-05-24T02:07:28.782Z,26.49
2023-05-24T02:08:28.833Z,26.43
2023-05-24T02:09:28.885Z,26.46
2023-05-24T02:10:28.939Z,26.46
2023-05-24T02:11:28.967Z,26.43
2023-05-24T02:12:28.961Z,26.45
2023-05-24T02:13:28.993Z,26.43
2023-05-24T02:14:29.011Z,26.45
2023-05-24T02:15:29.033Z,26.43
2023-05-24T02:16:29.095Z,26.45
2023-05-24T02:17:29.101Z,26.45
2023-05-24T02:18:29.113Z,26.45
2023-05-24T02:19:29.144Z,26.42
2023-05-24T02:20:29.176Z,26.41
2023-05-24T02:21:29.205Z,26.42
2023-05-24T02:22:29.210Z,26.42
2023-05-24T02:23:29.264Z,26.43
2023-05-24T02:24:29.284Z,26.42
2023-05-24T02:25:29.307Z,26.42
2023-05-24T02:26:29.381Z,26.41
2023-05-24T02:27:29.395Z,26.43
2023-05-24T02:28:29.409Z,26.42
2023-05-24T02:29:29.466Z,26.43
2023-05-24T02:30:29.523Z,26.41
2023-05-24T02:31:29.564Z,26.41
2023-05-24T02:32:29.572Z,26.41
2023-05-24T02:33:29.558Z,26.41
2023-05-24T02:34:29.599Z,26.41
2023-05-24T02:35:29.626Z,26.41
2023-05-24T02:36:29.666Z,26.42
2023-05-24T02:37:29.692Z,26.41
2023-05-24T02:38:29.704Z,26.39
2023-05-24T02:39:29.750Z,26.39
2023-05-24T02:40:29.766Z,26.43
2023-05-24T02:41:29.811Z,26.39
2023-05-24T02:42:29.851Z,26.41
2023-05-24T02:43:29.853Z,26.42
2023-05-24T02:44:29.886Z,26.41
2023-05-24T02:45:29.906Z,26.39
2023-05-24T02:46:29.955Z,26.38
2023-05-24T02:47:29.986Z,26.39
2023-05-24T02:48:29.987Z,26.38
2023-05-24T02:49:30.016Z,26.41
2023-05-24T02:50:30.056Z,26.38
2023-05-24T02:51:30.090Z,26.36
2023-05-24T02:52:30.118Z,26.35
2023-05-24T02:53:30.144Z,26.34
2023-05-24T02:54:30.163Z,26.34
2023-05-24T02:55:30.197Z,26.31
2023-05-24T02:56:30.209Z,26.28
2023-05-24T02:57:30.241Z,26.24
2023-05-24T02:58:30.268Z,26.21
2023-05-24T02:59:30.329Z,26.18
2023-05-24T03:00:30.404Z,26.15
2023-05-24T03:01:30.510Z,26.11
2023-05-24T03:02:30.586Z,26.09
2023-05-24T03:03:30.747Z,26.07
2023-05-24T03:04:30.735Z,26.07
2023-05-24T03:05:30.797Z,26.03
2023-05-24T03:06:30.888Z,26.01
2023-05-24T03:07:30.967Z,25.97
2023-05-24T03:08:31.062Z,25.96
2023-05-24T03:09:31.136Z,25.93
2023-05-24T03:10:31.225Z,25.93
2023-05-24T03:11:31.319Z,25.90
2023-05-24T03:12:31.402Z,25.87
2023-05-24T03:13:31.508Z,25.86
2023-05-24T03:14:31.590Z,25.84
2023-05-24T03:15:31.688Z,25.83
2023-05-24T03:16:31.854Z,25.80
2023-05-24T03:17:31.944Z,25.79
2023-05-24T03:18:32.005Z,25.75
2023-05-24T03:19:32.096Z,25.79
2023-05-24T03:20:32.233Z,25.77
2023-05-24T03:21:32.286Z,25.76
2023-05-24T03:22:32.398Z,25.75
2023-05-24T03:23:32.489Z,25.73
2023-05-24T03:24:32.592Z,25.73
2023-05-24T03:25:32.709Z,25.70
2023-05-24T03:26:32.808Z,25.69
2023-05-24T03:27:32.894Z,25.70
2023-05-24T03:28:33.015Z,25.69
2023-05-24T03:29:33.104Z,25.68
2023-05-24T03:30:33.194Z,25.66
2023-05-24T03:31:33.329Z,25.65
2023-05-24T03:32:33.488Z,25.66
2023-05-24T03:33:33.521Z,25.66
2023-05-24T03:34:33.642Z,25.66
2023-05-24T03:35:33.730Z,25.63
2023-05-24T03:36:33.792Z,25.63
2023-05-24T03:37:33.815Z,25.60
2023-05-24T03:38:33.857Z,25.60
2023-05-24T03:39:33.904Z,25.60
2023-05-24T03:40:34.050Z,25.59
2023-05-24T03:41:33.985Z,25.59
2023-05-24T03:42:33.990Z,25.58
2023-05-24T03:43:34.049Z,25.56
2023-05-24T03:44:34.068Z,25.56
2023-05-24T03:45:39.202Z,25.56
2023-05-24T03:46:35.278Z,25.56
2023-05-24T03:47:34.261Z,25.54
2023-05-24T03:48:34.269Z,25.58
2023-05-24T03:49:34.311Z,25.56
2023-05-24T03:50:34.369Z,25.56
2023-05-24T03:51:34.391Z,25.56
2023-05-24T03:52:34.435Z,25.56
2023-05-24T03:53:34.478Z,25.54
2023-05-24T03:54:34.522Z,25.56
2023-05-24T03:55:34.584Z,25.56
2023-05-24T03:56:34.640Z,25.54
2023-05-24T03:57:34.631Z,25.56
2023-05-24T03:58:34.670Z,25.54
2023-05-24T03:59:34.711Z,25.56
2023-05-24T04:00:34.750Z,25.58
2023-05-24T04:01:35.312Z,25.53
2023-05-24T04:02:34.908Z,25.53
2023-05-24T04:03:34.932Z,25.50
2023-05-24T04:04:34.906Z,25.52
2023-05-24T04:05:34.959Z,25.52
2023-05-24T04:06:35.017Z,25.50
2023-05-24T04:07:35.095Z,25.52
2023-05-24T04:08:35.207Z,25.52
2023-05-24T04:09:35.314Z,25.49
2023-05-24T04:10:35.350Z,25.50
2023-05-24T04:11:35.400Z,25.50
2023-05-24T04:12:35.429Z,25.49
2023-05-24T04:13:35.479Z,25.48
2023-05-24T04:14:35.510Z,25.48
2023-05-24T04:15:35.552Z,25.46
2023-05-24T04:16:35.624Z,25.46
2023-05-24T04:17:35.945Z,25.48
2023-05-24T04:18:35.766Z,25.46
2023-05-24T04:19:35.732Z,25.48
2023-05-24T04:20:35.871Z,25.46
2023-05-24T04:21:35.801Z,25.45
2023-05-24T04:22:35.825Z,25.45
2023-05-24T04:23:35.875Z,25.46
2023-05-24T04:24:35.936Z,25.43
2023-05-24T04:25:35.991Z,25.48
2023-05-24T04:26:36.094Z,25.45
2023-05-24T04:27:36.182Z,25.48
2023-05-24T04:28:36.279Z,25.46
2023-05-24T04:29:36.395Z,25.46
2023-05-24T04:30:36.507Z,25.45
2023-05-24T04:31:36.635Z,25.46
2023-05-24T04:32:36.742Z,25.43
2023-05-24T04:33:36.812Z,25.45
2023-05-24T04:34:36.911Z,25.48
2023-05-24T04:35:36.996Z,25.48
2023-05-24T04:36:37.134Z,25.45
2023-05-24T04:37:37.224Z,25.43
2023-05-24T04:38:37.319Z,25.45
2023-05-24T04:39:37.424Z,25.42
2023-05-24T04:40:37.528Z,25.43
2023-05-24T04:41:37.649Z,25.43
2023-05-24T04:42:37.740Z,25.41
2023-05-24T04:43:37.863Z,25.42
2023-05-24T04:44:37.964Z,25.42
2023-05-24T04:45:38.078Z,25.41
2023-05-24T04:46:38.233Z,25.45
2023-05-24T04:47:38.275Z,25.43
2023-05-24T04:48:38.260Z,25.43
2023-05-24T04:49:38.308Z,25.48
2023-05-24T04:50:38.346Z,25.46
2023-05-24T04:51:38.527Z,25.50
2023-05-24T04:52:38.427Z,25.53
2023-05-24T04:53:38.473Z,25.50
2023-05-24T04:54:38.524Z,25.52
2023-05-24T04:55:38.549Z,25.54
2023-05-24T04:56:38.710Z,25.54
2023-05-24T04:57:38.690Z,25.56
2023-05-24T04:58:39.459Z,25.59
2023-05-24T04:59:38.886Z,25.60
2023-05-24T05:00:38.984Z,25.65
2023-05-24T05:01:39.131Z,25.66
2023-05-24T05:02:39.228Z,25.66
2023-05-24T05:03:39.351Z,25.68
2023-05-24T05:04:39.399Z,25.66
2023-05-24T05:05:39.466Z,25.70
2023-05-24T05:06:39.572Z,25.72
2023-05-24T05:07:39.655Z,25.72
2023-05-24T05:08:39.758Z,25.73
2023-05-24T05:09:39.837Z,25.73
2023-05-24T05:10:40.029Z,25.73
2023-05-24T05:11:40.030Z,25.73
2023-05-24T05:12:40.099Z,25.75
2023-05-24T05:13:40.226Z,25.73
2023-05-24T05:14:40.303Z,25.75
2023-05-24T05:15:42.209Z,25.73
2023-05-24T05:16:40.542Z,25.76
2023-05-24T05:17:40.603Z,25.76
2023-05-24T05:18:40.602Z,25.76
2023-05-24T05:19:40.649Z,25.77
2023-05-24T05:20:40.794Z,25.79
2023-05-24T05:21:40.727Z,25.79
2023-05-24T05:22:40.736Z,25.80
2023-05-24T05:23:40.789Z,25.79
2023-05-24T05:24:40.812Z,25.80
2023-05-24T05:25:40.857Z,25.80
2023-05-24T05:26:40.890Z,25.77
2023-05-24T05:27:40.934Z,25.80
2023-05-24T05:28:40.951Z,25.77
2023-05-24T05:29:40.992Z,25.72
2023-05-24T05:30:41.184Z,25.73
2023-05-24T05:31:41.092Z,25.70
2023-05-24T05:32:41.180Z,25.75
2023-05-24T05:33:41.227Z,25.75
2023-05-24T05:34:41.198Z,25.77
2023-05-24T05:35:41.218Z,25.79
2023-05-24T05:36:41.267Z,25.81
2023-05-24T05:37:41.285Z,25.84
2023-05-24T05:38:41.342Z,25.84
2023-05-24T05:39:41.394Z,25.87
2023-05-24T05:40:41.687Z,25.88
2023-05-24T05:41:42.581Z,25.91
2023-05-24T05:42:41.800Z,25.93
2023-05-24T05:43:41.727Z,25.93
2023-05-24T05:44:41.797Z,25.96
2023-05-24T05:45:41.905Z,25.97
2023-05-24T05:46:42.044Z,26.00
2023-05-24T05:47:42.024Z,26.04
2023-05-24T05:48:42.925Z,26.05
2023-05-24T05:49:42.150Z,26.08
2023-05-24T05:50:42.389Z,26.09
2023-05-24T05:51:42.270Z,26.13
2023-05-24T05:52:42.318Z,26.15
2023-05-24T05:53:42.391Z,26.17
2023-05-24T05:54:42.495Z,26.18
2023-05-24T05:55:42.517Z,26.20
2023-05-24T05:56:42.500Z,26.22
2023-05-24T05:57:42.529Z,26.24
2023-05-24T05:58:42.563Z,26.27
2023-05-24T05:59:42.580Z,26.30
2023-05-24T06:00:42.842Z,26.31
2023-05-24T06:01:42.639Z,26.35
2023-05-24T06:02:42.742Z,26.34
2023-05-24T06:03:42.772Z,26.34
2023-05-24T06:04:42.734Z,26.36
2023-05-24T06:05:42.760Z,26.38
2023-05-24T06:06:42.774Z,26.41
2023-05-24T06:07:42.798Z,26.39
2023-05-24T06:08:42.833Z,26.42
2023-05-24T06:09:42.849Z,26.43
2023-05-24T06:10:43.128Z,26.45
2023-05-24T06:11:42.954Z,26.45
2023-05-24T06:12:43.022Z,26.50
2023-05-24T06:13:43.048Z,26.50
2023-05-24T06:14:43.063Z,26.53
2023-05-24T06:15:43.183Z,26.56
2023-05-24T06:16:43.229Z,26.56
2023-05-24T06:17:43.162Z,26.55
2023-05-24T06:18:50.139Z,26.58
2023-05-24T06:19:44.110Z,26.59
2023-05-24T06:20:43.530Z,26.60
2023-05-24T06:21:43.266Z,26.62
2023-05-24T06:22:43.236Z,26.66
2023-05-24T06:23:43.233Z,26.64
2023-05-24T06:24:43.289Z,26.67
2023-05-24T06:25:43.288Z,26.70
2023-05-24T06:26:43.346Z,26.67
2023-05-24T06:27:43.380Z,26.70
2023-05-24T06:28:43.384Z,26.70
2023-05-24T06:29:43.388Z,26.73
2023-05-24T06:30:43.681Z,26.64
2023-05-24T06:31:43.582Z,26.55
2023-05-24T06:32:43.507Z,26.18
2023-05-24T06:34:43.568Z,25.73
2023-05-24T06:35:43.736Z,25.58
2023-05-24T06:36:43.712Z,25.42
2023-05-24T06:37:43.824Z,25.36
2023-05-24T06:38:43.922Z,25.25
2023-05-24T06:39:44.033Z,25.17
2023-05-24T06:40:44.286Z,25.13
2023-05-24T06:41:44.249Z,25.05
2023-05-24T06:42:44.340Z,25.01
2023-05-24T06:43:44.438Z,24.98
2023-05-24T06:44:44.540Z,25.01
2023-05-24T06:45:44.616Z,25.03
2023-05-24T06:46:44.744Z,25.01
2023-05-24T06:47:44.843Z,25.11
2023-05-24T06:48:45.049Z,25.17
2023-05-24T06:49:44.904Z,25.22
2023-05-24T06:50:45.079Z,25.29
2023-05-24T06:51:45.035Z,25.32
2023-05-24T06:52:45.106Z,25.35
2023-05-24T06:53:45.221Z,25.43
2023-05-24T06:54:45.329Z,25.48
2023-05-24T06:55:45.482Z,25.53
2023-05-24T06:56:45.540Z,25.58
2023-05-24T06:57:45.648Z,25.65
2023-05-24T06:58:45.761Z,25.70
2023-05-24T06:59:45.870Z,25.77
2023-05-24T07:00:46.066Z,25.86
2023-05-24T07:01:46.239Z,25.86
2023-05-24T07:02:46.090Z,25.91
2023-05-24T07:03:46.156Z,25.97
2023-05-24T07:04:46.343Z,25.98
2023-05-24T07:05:46.213Z,26.01
2023-05-24T07:06:46.268Z,26.07
2023-05-24T07:07:46.329Z,26.07
2023-05-24T07:08:46.342Z,26.11
2023-05-24T07:09:46.338Z,26.11
2023-05-24T07:10:46.416Z,26.14
2023-05-24T07:11:46.468Z,26.18
2023-05-24T07:12:46.421Z,26.18
2023-05-24T07:13:46.476Z,26.22
2023-05-24T07:14:46.510Z,26.24
2023-05-24T07:15:46.534Z,26.27
2023-05-24T07:16:46.757Z,26.27
2023-05-24T07:17:46.646Z,26.32
2023-05-24T07:18:46.657Z,26.30
2023-05-24T07:19:46.667Z,26.35
2023-05-24T07:20:47.093Z,26.36
2023-05-24T07:21:46.729Z,26.39
2023-05-24T07:22:46.735Z,26.39
2023-05-24T07:23:46.770Z,26.45
2023-05-24T07:24:46.811Z,26.46
2023-05-24T07:25:46.852Z,26.45
2023-05-24T07:26:46.956Z,26.49
2023-05-24T07:27:47.052Z,26.50
2023-05-24T07:28:47.013Z,26.55
2023-05-24T07:29:48.515Z,26.53
2023-05-24T07:30:47.152Z,26.58
2023-05-24T07:31:47.137Z,26.58
2023-05-24T07:32:47.317Z,26.62
2023-05-24T07:33:47.220Z,26.64
2023-05-24T07:34:47.235Z,26.66
2023-05-24T07:35:47.359Z,26.69
2023-05-24T07:36:47.330Z,26.73
2023-05-24T07:37:47.568Z,26.72
2023-05-24T07:38:47.364Z,26.66
2023-05-24T07:39:47.399Z,26.69
2023-05-24T07:40:47.391Z,26.69
2023-05-24T07:41:47.424Z,26.69
2023-05-24T07:42:47.467Z,26.69
2023-05-24T07:43:47.443Z,26.70
2023-05-24T07:44:47.486Z,26.70
2023-05-24T07:45:47.497Z,26.60
2023-05-24T07:46:47.612Z,26.64
2023-05-24T07:47:47.595Z,26.67
2023-05-24T07:48:47.620Z,26.59
2023-05-24T07:49:47.596Z,26.55
2023-05-24T07:50:47.689Z,26.49
2023-05-24T07:51:47.739Z,26.43
2023-05-24T07:52:47.714Z,26.38
2023-05-24T07:53:47.731Z,26.34
2023-05-24T07:54:47.756Z,26.27
2023-05-24T07:55:47.808Z,26.22
2023-05-24T07:56:47.880Z,26.14
2023-05-24T07:57:47.882Z,26.11
2023-05-24T07:58:47.910Z,26.04
2023-05-24T07:59:47.945Z,26.00
2023-05-24T08:00:48.054Z,25.91
2023-05-24T08:01:48.165Z,25.84
2023-05-24T08:02:48.357Z,25.81
2023-05-24T08:03:48.530Z,25.73
2023-05-24T08:04:48.374Z,25.63
2023-05-24T08:05:48.407Z,25.58
2023-05-24T08:06:48.573Z,25.54
2023-05-24T08:07:48.501Z,25.50
2023-05-24T08:08:48.559Z,25.43
2023-05-24T08:09:48.689Z,25.41
2023-05-24T08:10:48.685Z,25.36
2023-05-24T08:11:48.687Z,25.32
2023-05-24T08:12:48.705Z,25.28
2023-05-24T08:13:48.787Z,25.26
2023-05-24T08:14:48.812Z,25.25
2023-05-24T08:15:48.864Z,25.22
2023-05-24T08:16:48.934Z,25.18
2023-05-24T08:17:49.024Z,25.15
2023-05-24T08:18:48.982Z,25.08
2023-05-24T08:19:49.034Z,25.03
2023-05-24T08:20:49.093Z,24.95
2023-05-24T08:21:49.163Z,24.91
2023-05-24T08:22:49.168Z,24.86
2023-05-24T08:23:49.303Z,24.83
2023-05-24T08:24:49.315Z,24.74
2023-05-24T08:25:49.356Z,24.69
2023-05-24T08:26:49.437Z,24.67
2023-05-24T08:27:49.546Z,24.64
2023-05-24T08:28:49.537Z,24.58
2023-05-24T08:29:49.650Z,24.56
2023-05-24T08:30:49.639Z,24.52
2023-05-24T08:31:49.785Z,24.48
2023-05-24T08:32:49.784Z,24.39
2023-05-24T08:33:49.902Z,24.38
2023-05-24T08:34:49.880Z,24.39
2023-05-24T08:35:49.972Z,24.39
2023-05-24T08:36:50.012Z,24.48
2023-05-24T08:37:50.125Z,24.53
2023-05-24T08:38:50.089Z,24.62
2023-05-24T08:39:50.132Z,24.71
2023-05-24T08:40:50.226Z,24.73
2023-05-24T08:42:07.331Z,24.83
2023-05-24T08:42:51.305Z,24.90
2023-05-24T08:43:50.349Z,24.97
2023-05-24T08:44:50.397Z,25.04
2023-05-24T08:45:50.454Z,25.11
2023-05-24T08:46:50.508Z,25.14
2023-05-24T08:47:50.674Z,25.25
2023-05-24T08:48:50.687Z,25.32
2023-05-24T08:49:50.623Z,25.36
2023-05-24T08:50:50.640Z,25.36
2023-05-24T08:51:50.743Z,25.41
2023-05-24T08:52:50.742Z,25.50
2023-05-24T08:53:50.807Z,25.53
2023-05-24T08:54:50.811Z,25.60
2023-05-24T08:55:50.907Z,25.62
2023-05-24T08:56:50.974Z,25.66
2023-05-24T08:57:51.116Z,25.69
2023-05-24T08:58:51.180Z,25.72
2023-05-24T08:59:51.250Z,25.75
2023-05-24T09:00:51.369Z,25.77
2023-05-24T09:01:51.457Z,25.80
2023-05-24T09:02:51.527Z,25.79
2023-05-24T09:03:51.781Z,25.81
2023-05-24T09:04:51.643Z,25.83
2023-05-24T09:05:51.767Z,25.87
2023-05-24T09:06:51.820Z,25.90
2023-05-24T09:07:51.908Z,25.93
2023-05-24T09:08:51.986Z,25.91
2023-05-24T09:09:52.034Z,25.93
2023-05-24T09:10:55.631Z,25.94
2023-05-24T09:11:52.159Z,25.94
2023-05-24T09:12:52.162Z,25.93
2023-05-24T09:13:52.218Z,25.94
2023-05-24T09:14:52.248Z,25.96
2023-05-24T09:15:52.345Z,25.96
2023-05-24T09:16:52.298Z,25.96
2023-05-24T09:17:52.378Z,25.97
2023-05-24T09:18:52.427Z,25.94
2023-05-24T09:19:52.440Z,25.97
2023-05-24T09:20:52.486Z,25.97
2023-05-24T09:21:52.501Z,25.98
2023-05-24T09:22:52.492Z,26.00
2023-05-24T09:23:52.541Z,26.00
2023-05-24T09:24:52.647Z,26.03
2023-05-24T09:25:52.686Z,26.01
2023-05-24T09:26:52.689Z,26.01
2023-05-24T09:27:52.764Z,26.03
2023-05-24T09:28:52.762Z,25.98
2023-05-24T09:29:52.776Z,25.98
2023-05-24T09:30:52.824Z,25.96
2023-05-24T09:31:52.968Z,25.96
2023-05-24T09:32:52.959Z,25.94
2023-05-24T09:33:52.903Z,25.91
2023-05-24T09:34:52.946Z,25.93
2023-05-24T09:35:53.060Z,25.90
2023-05-24T09:36:53.158Z,25.86
2023-05-24T09:37:53.232Z,25.87
2023-05-24T09:38:53.341Z,25.84
2023-05-24T09:39:53.461Z,25.84
2023-05-24T09:40:53.560Z,25.84
2023-05-24T09:41:53.678Z,25.84
2023-05-24T09:42:53.751Z,25.87
2023-05-24T09:43:53.905Z,25.87
2023-05-24T09:44:53.960Z,25.86
2023-05-24T09:45:54.176Z,25.88
2023-05-24T09:46:54.091Z,25.87
2023-05-24T09:47:54.173Z,25.90
2023-05-24T09:48:54.118Z,25.87
2023-05-24T09:49:54.176Z,25.87
2023-05-24T09:50:54.209Z,25.86
2023-05-24T09:51:54.301Z,25.84
2023-05-24T09:53:43.477Z,25.70
2023-05-24T09:54:43.444Z,25.75
2023-05-24T09:55:43.522Z,25.72
2023-05-24T09:56:43.431Z,25.76
2023-05-24T09:57:43.432Z,25.75
2023-05-24T09:58:43.445Z,25.75
2023-05-24T09:59:43.415Z,25.76
2023-05-24T10:00:43.909Z,25.77
2023-05-24T10:01:43.553Z,25.79
2023-05-24T10:02:53.129Z,25.77
2023-05-24T10:03:44.460Z,25.77
2023-05-24T10:04:43.360Z,25.73
2023-05-24T10:05:43.314Z,25.69
2023-05-24T10:06:43.283Z,25.69
2023-05-24T10:07:43.291Z,25.68
2023-05-24T10:08:43.301Z,25.62
2023-05-24T10:09:43.238Z,25.60
2023-05-24T10:10:43.556Z,25.66
2023-05-24T10:11:43.254Z,25.62
2023-05-24T10:12:43.223Z,25.62
2023-05-24T10:13:43.200Z,25.60
2023-05-24T10:14:43.162Z,25.62
2023-05-24T10:15:43.144Z,25.65
2023-05-24T10:16:43.191Z,25.63
2023-05-24T10:17:43.184Z,25.62
2023-05-24T10:18:43.096Z,25.66
2023-05-24T10:19:43.094Z,25.63
2023-05-24T10:20:43.486Z,25.63
2023-05-24T10:21:43.152Z,25.66
2023-05-24T10:22:43.031Z,25.63
2023-05-24T10:23:43.019Z,25.63
2023-05-24T10:24:42.992Z,25.65
2023-05-24T10:25:42.994Z,25.60
2023-05-24T10:26:43.028Z,25.60
2023-05-24T10:27:42.950Z,25.63
2023-05-24T10:28:42.955Z,25.65
2023-05-24T10:29:42.923Z,25.65
2023-05-24T10:30:43.398Z,25.66
2023-05-24T10:31:43.006Z,25.68
2023-05-24T10:32:42.957Z,25.63
2023-05-24T10:33:42.908Z,25.70
2023-05-24T10:34:42.816Z,25.70
2023-05-24T10:35:42.862Z,25.73
2023-05-24T10:36:42.796Z,25.73
2023-05-24T10:37:42.802Z,25.76
2023-05-24T10:38:42.834Z,25.80
2023-05-24T10:39:42.744Z,25.80
2023-05-24T10:40:42.778Z,25.80
2023-05-24T10:41:42.693Z,25.83
2023-05-24T10:42:42.657Z,25.84
2023-05-24T10:43:43.901Z,25.86
2023-05-24T10:44:42.605Z,25.84
2023-05-24T10:45:42.613Z,25.84
2023-05-24T10:46:42.697Z,25.86
2023-05-24T10:47:42.536Z,25.86
2023-05-24T10:48:42.517Z,25.84
2023-05-24T10:49:42.491Z,25.86
2023-05-24T10:50:42.897Z,25.84
2023-05-24T10:51:42.448Z,25.84
2023-05-24T10:52:42.429Z,25.81
2023-05-24T10:53:42.433Z,25.80
2023-05-24T10:54:55.824Z,25.81
2023-05-24T10:55:43.338Z,25.80
2023-05-24T10:56:42.351Z,25.77
2023-05-24T10:57:42.334Z,25.76
2023-05-24T10:58:42.287Z,25.75
2023-05-24T10:59:42.301Z,25.76
2023-05-24T11:00:42.276Z,25.70
2023-05-24T11:01:42.267Z,25.73
2023-05-24T11:02:42.265Z,25.72
2023-05-24T11:03:42.222Z,25.72
2023-05-24T11:04:42.193Z,25.70
2023-05-24T11:05:44.327Z,25.69
2023-05-24T11:06:42.167Z,25.72
2023-05-24T11:07:42.138Z,25.69
2023-05-24T11:08:42.149Z,25.68
2023-05-24T11:09:42.135Z,25.69
2023-05-24T11:10:42.938Z,25.72
2023-05-24T11:11:42.109Z,25.73
2023-05-24T11:12:42.138Z,25.72
2023-05-24T11:13:42.090Z,25.72
2023-05-24T11:14:42.060Z,25.72
2023-05-24T11:15:42.027Z,25.75
2023-05-24T11:16:42.112Z,25.75
2023-05-24T11:17:43.549Z,25.72
2023-05-24T11:18:41.973Z,25.73
2023-05-24T11:19:41.963Z,25.73
2023-05-24T11:20:42.366Z,25.70
2023-05-24T11:21:41.974Z,25.69
2023-05-24T11:22:41.944Z,25.69
2023-05-24T11:23:41.935Z,25.70
2023-05-24T11:24:41.887Z,25.69
2023-05-24T11:25:41.888Z,25.68
2023-05-24T11:26:41.909Z,25.66
2023-05-24T11:27:41.846Z,25.68
2023-05-24T11:28:41.878Z,25.68
2023-05-24T11:29:41.806Z,25.66
2023-05-24T11:30:42.059Z,25.66
2023-05-24T11:31:44.078Z,25.66
2023-05-24T11:32:41.815Z,25.68
2023-05-24T11:33:41.731Z,25.68
2023-05-24T11:34:41.704Z,25.68
2023-05-24T11:35:41.682Z,25.69
2023-05-24T11:36:41.721Z,25.70
2023-05-24T11:37:46.499Z,25.70
2023-05-24T11:38:42.628Z,25.69
2023-05-24T11:39:41.624Z,25.68
2023-05-24T11:40:41.802Z,25.69
2023-05-24T11:41:41.588Z,25.72
2023-05-24T11:42:41.564Z,25.72
2023-05-24T11:43:41.514Z,25.73
2023-05-24T11:44:41.499Z,25.75
2023-05-24T11:45:41.482Z,25.73
2023-05-24T11:46:41.491Z,25.75
2023-05-24T11:47:41.505Z,25.70
2023-05-24T11:48:42.283Z,25.70
2023-05-24T11:49:41.409Z,25.73
2023-05-24T11:50:49.255Z,25.73
2023-05-24T11:51:42.451Z,25.73
2023-05-24T11:52:41.336Z,25.75
2023-05-24T11:53:41.311Z,25.72
2023-05-24T11:54:41.295Z,25.75
2023-05-24T11:55:41.460Z,25.75
2023-05-24T11:56:41.275Z,25.76
2023-05-24T11:57:41.232Z,25.75
2023-05-24T11:58:41.240Z,25.76
2023-05-24T11:59:41.215Z,25.79
2023-05-24T12:00:41.382Z,25.76
2023-05-24T12:01:41.187Z,25.80
2023-05-24T12:02:41.293Z,25.80
2023-05-24T12:03:41.230Z,25.80
2023-05-24T12:04:41.168Z,25.81
2023-05-24T12:05:41.113Z,25.83
2023-05-24T12:06:41.133Z,25.81
2023-05-24T12:07:41.067Z,25.81
2023-05-24T12:08:41.064Z,25.81
2023-05-24T12:09:41.094Z,25.84
2023-05-24T12:10:41.204Z,25.84
2023-05-24T12:11:41.019Z,25.84
2023-05-24T12:12:45.782Z,25.83
2023-05-24T12:13:42.011Z,25.86
2023-05-24T12:14:41.047Z,25.86
2023-05-24T12:15:41.041Z,25.83
2023-05-24T12:16:40.967Z,25.86
2023-05-24T12:17:40.948Z,25.86
2023-05-24T12:18:48.334Z,25.86
2023-05-24T12:19:41.905Z,25.86
2023-05-24T12:20:41.156Z,25.84
2023-05-24T12:21:40.900Z,25.86
2023-05-24T12:22:40.851Z,25.84
2023-05-24T12:23:40.834Z,25.86
2023-05-24T12:24:40.831Z,25.86
2023-05-24T12:25:40.802Z,25.86
2023-05-24T12:26:40.809Z,25.87
2023-05-24T12:27:41.178Z,25.87
2023-05-24T12:28:40.750Z,25.84
2023-05-24T12:29:41.762Z,25.86
2023-05-24T12:30:40.860Z,25.86
2023-05-24T12:31:40.742Z,25.87
2023-05-24T12:32:40.704Z,25.88
2023-05-24T12:33:40.661Z,25.88
2023-05-24T12:34:40.632Z,25.88
2023-05-24T12:35:40.590Z,25.88
2023-05-24T12:36:40.596Z,25.79
2023-05-24T12:37:40.588Z,25.80
2023-05-24T12:38:40.549Z,25.72
2023-05-24T12:39:40.582Z,25.73
2023-05-24T12:41:59.440Z,25.69
2023-05-24T12:42:59.444Z,25.75
2023-05-24T12:43:59.422Z,25.72
2023-05-24T12:44:59.422Z,25.75
2023-05-24T12:45:59.442Z,25.76
2023-05-24T12:46:59.470Z,25.76
2023-05-24T12:47:59.539Z,25.73
2023-05-24T12:48:59.442Z,25.72
2023-05-24T12:49:59.457Z,25.73
2023-05-24T12:50:59.461Z,25.73
2023-05-24T12:51:59.501Z,25.73
2023-05-24T12:52:59.475Z,25.73
2023-05-24T12:53:59.517Z,25.72
2023-05-24T12:54:59.485Z,25.69
2023-05-24T12:55:59.496Z,25.65